Rhapsody — IBQF — position and weather

sailwx.info

Track history (hours):
 
Tides and Currents Weather Stations Pressure Air Temp Water Temp Dewpoint Dewpoint Depression Visibility Wind Speed Wind Dir Waves Ship Positions

Rhapsody

Operator: Mediterranean Shipping Company

Last reported at 2017-Sep-19 15:39 UTC. Time now 2017-Sep-20 00:34 UTC.
Position N 30°09' W 014°13'.

Length 180 m; draft 9.5 m.

Type: Ship. MMSI: 247283200.

Date/timePositionNaut miles runAvg speedWind from/ knotsBaromVisibWave heightAir tempDewpointWater temp
2017-Sep-19 15:39N 30°09' W 014°13'511.4
2017-Sep-19 15:10N 30°05' W 014°16'211.4
2017-Sep-19 15:00N 30°03' W 014°17'611.4
2017-Sep-19 14:30N 29°59' W 014°21'611.3
2017-Sep-19 14:00N 29°54' W 014°25'611.2
2017-Sep-19 13:30N 29°49' W 014°28'511.0
2017-Sep-19 13:00N 29°45' W 014°32'510.4
2017-Sep-19 12:30N 29°41' W 014°35'510.5
2017-Sep-19 12:00N 29°36' W 014°39'611.4
2017-Sep-19 11:30N 29°32' W 014°42'611.2
2017-Sep-19 11:00N 29°26' W 014°44'611.8
2017-Sep-19 10:30N 29°20' W 014°44'611.8
2017-Sep-19 10:00N 29°14' W 014°44'611.7
2017-Sep-19 09:30N 29°08' W 014°44'611.5
2017-Sep-19 09:00N 29°03' W 014°43'611.3
2017-Sep-19 08:30N 28°57' W 014°42'611.1
2017-Sep-19 08:00N 28°52' W 014°42'5 9.9
2017-Sep-19 07:30N 28°47' W 014°44'510.5
2017-Sep-19 07:00N 28°43' W 014°48'510.6
2017-Sep-19 06:30N 28°39' W 014°52'510.7
2017-Sep-19 06:00N 28°35' W 014°56'510.7
2017-Sep-19 05:30N 28°31' W 014°60'510.8
2017-Sep-19 05:00N 28°27' W 015°04'510.8
2017-Sep-19 04:30N 28°23' W 015°08'510.8
2017-Sep-19 04:00N 28°19' W 015°12'510.9
2017-Sep-19 03:30N 28°14' W 015°16'611.0
2017-Sep-19 03:00N 28°10' W 015°20'510.2
2017-Sep-19 02:30N 28°07' W 015°24'1 1.6
2017-Sep-19 02:01N 28°07' W 015°25'0 0.0
2017-Sep-19 01:31N 28°07' W 015°25'0 0.0
2017-Sep-19 01:01N 28°07' W 015°25'0 0.0
2017-Sep-19 00:31N 28°07' W 015°25'0 0.0
2017-Sep-19 00:00N 28°07' W 015°25'0 0.1
2017-Sep-18 23:31N 28°08' W 015°25'0 0.0
2017-Sep-18 23:01N 28°08' W 015°25'0 0.0
2017-Sep-18 22:31N 28°08' W 015°25'0 0.0
2017-Sep-18 20:49N 28°08' W 015°25'0 0.0
2017-Sep-18 20:31N 28°07' W 015°25'0 0.0
2017-Sep-18 19:52N 28°07' W 015°25'0 0.0
2017-Sep-18 19:21N 28°08' W 015°25'0 0.0
2017-Sep-18 18:55N 28°08' W 015°25'0 0.0
2017-Sep-18 18:25N 28°08' W 015°25'0 0.0
2017-Sep-18 17:55N 28°07' W 015°25'0 0.0
2017-Sep-18 17:25N 28°07' W 015°25'0 0.1
2017-Sep-18 16:55N 28°07' W 015°25'0 0.0
2017-Sep-18 16:24N 28°07' W 015°25'0 0.0
2017-Sep-18 15:55N 28°07' W 015°25'0 0.1
2017-Sep-18 15:24N 28°07' W 015°25'0 0.0
2017-Sep-18 14:58N 28°07' W 015°25'0 0.0
2017-Sep-18 14:28N 28°08' W 015°25'0 0.0
2017-Sep-18 13:57N 28°08' W 015°25'0 0.0
2017-Sep-18 13:28N 28°08' W 015°25'0 0.0
2017-Sep-18 13:01N 28°08' W 015°25'0 0.0
2017-Sep-18 12:30N 28°08' W 015°25'0 0.0
2017-Sep-18 12:01N 28°07' W 015°25'0 0.6
2017-Sep-18 11:29N 28°07' W 015°25'2 4.0
2017-Sep-18 11:00N 28°07' W 015°23'3 6.9
2017-Sep-18 10:30N 28°06' W 015°19'4 7.6
2017-Sep-18 10:00N 28°02' W 015°17'510.6
2017-Sep-18 09:29N 27°57' W 015°15'510.8
2017-Sep-18 09:00N 27°52' W 015°13'511.0
2017-Sep-18 08:30N 27°47' W 015°11'612.1
2017-Sep-18 08:00N 27°42' W 015°08'611.2
2017-Sep-18 07:30N 27°36' W 015°09'4212.1
2017-Sep-18 04:01N 26°57' W 015°26'012.0
2017-Sep-18 04:00N 26°56' W 015°26'7611.8
2017-Sep-17 21:30N 25°45' W 015°58'611.6
2017-Sep-17 21:00N 25°40' W 015°60'20012.0
2017-Sep-17 04:22N 22°32' W 017°14'  
Track history (hours):
 
Tides and Currents Weather Stations Pressure Air Temp Water Temp Dewpoint Dewpoint Depression Visibility Wind Speed Wind Dir Waves Ship Positions

Rhapsody

Operator: Mediterranean Shipping Company

Last reported at 2017-Sep-19 15:39 UTC. Time now 2017-Sep-20 00:34 UTC.
Position N 30°09' W 014°13'.

Length 180 m; draft 9.5 m.

Type: Ship. MMSI: 247283200.

Date/timePositionNaut miles runAvg speedWind from/ knotsBaromVisibWave heightAir tempDewpointWater temp
2017-Sep-19 15:39N 30°09' W 014°13'511.4
2017-Sep-19 15:10N 30°05' W 014°16'211.4
2017-Sep-19 15:00N 30°03' W 014°17'611.4
2017-Sep-19 14:30N 29°59' W 014°21'611.3
2017-Sep-19 14:00N 29°54' W 014°25'611.2
2017-Sep-19 13:30N 29°49' W 014°28'511.0
2017-Sep-19 13:00N 29°45' W 014°32'510.4
2017-Sep-19 12:30N 29°41' W 014°35'510.5
2017-Sep-19 12:00N 29°36' W 014°39'611.4
2017-Sep-19 11:30N 29°32' W 014°42'611.2
2017-Sep-19 11:00N 29°26' W 014°44'611.8
2017-Sep-19 10:30N 29°20' W 014°44'611.8
2017-Sep-19 10:00N 29°14' W 014°44'611.7
2017-Sep-19 09:30N 29°08' W 014°44'611.5
2017-Sep-19 09:00N 29°03' W 014°43'611.3
2017-Sep-19 08:30N 28°57' W 014°42'611.1
2017-Sep-19 08:00N 28°52' W 014°42'5 9.9
2017-Sep-19 07:30N 28°47' W 014°44'510.5
2017-Sep-19 07:00N 28°43' W 014°48'510.6
2017-Sep-19 06:30N 28°39' W 014°52'510.7
2017-Sep-19 06:00N 28°35' W 014°56'510.7
2017-Sep-19 05:30N 28°31' W 014°60'510.8
2017-Sep-19 05:00N 28°27' W 015°04'510.8
2017-Sep-19 04:30N 28°23' W 015°08'510.8
2017-Sep-19 04:00N 28°19' W 015°12'510.9
2017-Sep-19 03:30N 28°14' W 015°16'611.0
2017-Sep-19 03:00N 28°10' W 015°20'510.2
2017-Sep-19 02:30N 28°07' W 015°24'1 1.6
2017-Sep-19 02:01N 28°07' W 015°25'0 0.0
2017-Sep-19 01:31N 28°07' W 015°25'0 0.0
2017-Sep-19 01:01N 28°07' W 015°25'0 0.0
2017-Sep-19 00:31N 28°07' W 015°25'0 0.0
2017-Sep-19 00:00N 28°07' W 015°25'0 0.1
2017-Sep-18 23:31N 28°08' W 015°25'0 0.0
2017-Sep-18 23:01N 28°08' W 015°25'0 0.0
2017-Sep-18 22:31N 28°08' W 015°25'0 0.0
2017-Sep-18 20:49N 28°08' W 015°25'0 0.0
2017-Sep-18 20:31N 28°07' W 015°25'0 0.0
2017-Sep-18 19:52N 28°07' W 015°25'0 0.0
2017-Sep-18 19:21N 28°08' W 015°25'0 0.0
2017-Sep-18 18:55N 28°08' W 015°25'0 0.0
2017-Sep-18 18:25N 28°08' W 015°25'0 0.0
2017-Sep-18 17:55N 28°07' W 015°25'0 0.0
2017-Sep-18 17:25N 28°07' W 015°25'0 0.1
2017-Sep-18 16:55N 28°07' W 015°25'0 0.0
2017-Sep-18 16:24N 28°07' W 015°25'0 0.0
2017-Sep-18 15:55N 28°07' W 015°25'0 0.1
2017-Sep-18 15:24N 28°07' W 015°25'0 0.0
2017-Sep-18 14:58N 28°07' W 015°25'0 0.0
2017-Sep-18 14:28N 28°08' W 015°25'0 0.0
2017-Sep-18 13:57N 28°08' W 015°25'0 0.0
2017-Sep-18 13:28N 28°08' W 015°25'0 0.0
2017-Sep-18 13:01N 28°08' W 015°25'0 0.0
2017-Sep-18 12:30N 28°08' W 015°25'0 0.0
2017-Sep-18 12:01N 28°07' W 015°25'0 0.6
2017-Sep-18 11:29N 28°07' W 015°25'2 4.0
2017-Sep-18 11:00N 28°07' W 015°23'3 6.9
2017-Sep-18 10:30N 28°06' W 015°19'4 7.6
2017-Sep-18 10:00N 28°02' W 015°17'510.6
2017-Sep-18 09:29N 27°57' W 015°15'510.8
2017-Sep-18 09:00N 27°52' W 015°13'511.0
2017-Sep-18 08:30N 27°47' W 015°11'612.1
2017-Sep-18 08:00N 27°42' W 015°08'611.2
2017-Sep-18 07:30N 27°36' W 015°09'4212.1
2017-Sep-18 04:01N 26°57' W 015°26'012.0
2017-Sep-18 04:00N 26°56' W 015°26'7611.8
2017-Sep-17 21:30N 25°45' W 015°58'611.6
2017-Sep-17 21:00N 25°40' W 015°60'20012.0
2017-Sep-17 04:22N 22°32' W 017°14'  

Dump ship's entire track history